Time;durP1;ratioP1;P1;durP2;ratioP2;P2;SDS_P1;SDS_P2;PMS_P1;PMS_P2;Temp;Humidity;BMP_temperature;BMP_pressure;BME280_temperature;BME280_humidity;BME280_pressure;Samples;Min_cycle;Max_cycle;Signal;HPM_P1;HPM_P2
2022/04/10 00:00:00;;;;;;;5.53;2.60;;;3.60;99.90;;;;;;5056416;28;20803;-79
2022/04/10 00:02:28;;;;;;;5.90;2.70;;;3.60;99.90;;;;;;5065678;28;20498;-79
2022/04/10 00:04:58;;;;;;;9.97;3.67;;;3.60;99.90;;;;;;5075806;28;20467;-79
2022/04/10 00:07:26;;;;;;;5.13;2.63;;;3.60;99.90;;;;;;5077567;28;20544;-79
2022/04/10 00:09:54;;;;;;;6.00;2.63;;;3.60;99.90;;;;;;5075356;28;20477;-79
2022/04/10 00:12:22;;;;;;;5.97;2.23;;;3.50;99.90;;;;;;5075996;28;20539;-79
2022/04/10 00:14:50;;;;;;;8.50;2.70;;;3.50;99.90;;;;;;5077917;28;20536;-79
2022/04/10 00:17:18;;;;;;;5.63;2.50;;;3.50;99.90;;;;;;5076324;28;20499;-79
2022/04/10 00:19:46;;;;;;;6.97;2.67;;;3.50;99.90;;;;;;5076308;28;20797;-79
2022/04/10 00:22:16;;;;;;;4.30;2.67;;;3.50;99.90;;;;;;5076959;28;20447;-79
2022/04/10 00:24:45;;;;;;;9.57;3.00;;;3.40;99.90;;;;;;5037295;28;20525;-79
2022/04/10 00:27:14;;;;;;;5.00;2.63;;;3.40;99.90;;;;;;5036090;28;20878;-79
2022/04/10 00:29:42;;;;;;;8.40;3.67;;;3.40;99.90;;;;;;5036123;28;20480;-79
2022/04/10 00:32:10;;;;;;;6.70;3.00;;;3.40;99.90;;;;;;5037296;28;20462;-79
2022/04/10 00:34:40;;;;;;;6.73;2.80;;;3.40;99.90;;;;;;5036001;28;20455;-79
2022/04/10 00:37:08;;;;;;;8.03;3.10;;;3.40;99.90;;;;;;5036790;28;20451;-79
2022/04/10 00:39:37;;;;;;;7.97;2.47;;;3.40;99.90;;;;;;5036484;28;20469;-79
2022/04/10 00:42:06;;;;;;;9.50;2.67;;;3.40;99.90;;;;;;5068810;28;20584;-79
2022/04/10 00:44:35;;;;;;;8.43;3.17;;;3.40;99.90;;;;;;5062699;28;20445;-79
2022/04/10 00:47:05;;;;;;;9.70;3.30;;;3.40;99.90;;;;;;5060546;28;20556;-79
2022/04/10 00:49:33;;;;;;;10.67;3.40;;;3.40;99.90;;;;;;5055375;28;20477;-79
2022/04/10 00:52:02;;;;;;;8.50;3.63;;;3.40;99.90;;;;;;5054992;28;20533;-79
2022/04/10 00:54:31;;;;;;;7.40;2.80;;;3.40;99.90;;;;;;5055458;28;20457;-79
2022/04/10 00:57:02;;;;;;;4.97;2.90;;;3.40;99.90;;;;;;5055352;28;20466;-79
2022/04/10 00:59:30;;;;;;;7.43;3.00;;;3.40;99.90;;;;;;5056588;28;20476;-79
2022/04/10 01:01:59;;;;;;;10.10;3.40;;;3.40;99.90;;;;;;5055413;28;20488;-79
2022/04/10 01:04:46;;;;;;;8.77;3.17;;;3.40;99.90;;;;;;5062613;28;20487;-79
2022/04/10 01:07:16;;;;;;;10.97;4.57;;;3.40;99.90;;;;;;5075758;28;20917;-79
2022/04/10 01:09:47;;;;;;;6.90;3.63;;;3.40;99.90;;;;;;5075764;28;20468;-79
2022/04/10 01:12:17;;;;;;;8.03;3.40;;;3.50;99.90;;;;;;5075854;28;20473;-79
2022/04/10 01:14:51;;;;;;;7.23;3.17;;;3.50;99.90;;;;;;5075953;28;20536;-79
2022/04/10 01:17:25;;;;;;;11.20;3.97;;;3.50;99.90;;;;;;5079125;28;20501;-79
2022/04/10 01:19:54;;;;;;;6.33;2.97;;;3.50;99.90;;;;;;5080895;28;20443;-79
2022/04/10 01:22:44;;;;;;;6.50;4.10;;;3.50;99.90;;;;;;5080441;28;20494;-79
2022/04/10 01:25:13;;;;;;;6.60;3.53;;;3.50;99.90;;;;;;5079138;28;20446;-79
2022/04/10 01:27:44;;;;;;;7.37;3.73;;;3.50;99.90;;;;;;5079566;28;20488;-79
2022/04/10 01:30:15;;;;;;;6.80;3.47;;;3.50;99.90;;;;;;5079561;28;20461;-79
2022/04/10 01:32:46;;;;;;;8.20;3.47;;;3.50;99.90;;;;;;5079442;28;20479;-79
2022/04/10 01:35:15;;;;;;;10.77;3.90;;;3.50;99.90;;;;;;5078540;28;20579;-79
2022/04/10 01:37:46;;;;;;;7.83;3.70;;;3.50;99.90;;;;;;5079492;28;20456;-79
2022/04/10 01:40:20;;;;;;;7.37;3.63;;;3.50;99.90;;;;;;5079200;28;20983;-79
2022/04/10 01:42:49;;;;;;;8.47;4.30;;;3.50;99.90;;;;;;5077315;28;20451;-80
2022/04/10 01:45:18;;;;;;;6.33;3.17;;;3.50;99.90;;;;;;5061986;28;20519;-79
2022/04/10 01:47:50;;;;;;;9.73;3.80;;;3.50;99.90;;;;;;5059808;28;20454;-79
2022/04/10 01:50:19;;;;;;;13.17;4.00;;;3.50;99.90;;;;;;5059020;28;20462;-79
2022/04/10 01:52:48;;;;;;;7.23;3.90;;;3.50;99.90;;;;;;5058628;28;20537;-79
2022/04/10 01:55:16;;;;;;;12.10;4.07;;;3.50;99.90;;;;;;5058331;28;20453;-79
2022/04/10 01:57:45;;;;;;;8.47;3.60;;;3.50;99.90;;;;;;5058645;28;20446;-79
2022/04/10 02:00:14;;;;;;;8.43;4.40;;;3.50;99.90;;;;;;5058577;28;20442;-79
2022/04/10 02:02:44;;;;;;;7.87;4.53;;;3.50;99.90;;;;;;5071758;28;20527;-79
2022/04/10 02:05:13;;;;;;;8.37;4.03;;;3.50;99.90;;;;;;5079437;28;20455;-79
2022/04/10 02:07:41;;;;;;;9.50;3.70;;;3.50;99.90;;;;;;5078545;28;20954;-79
2022/04/10 02:10:11;;;;;;;10.13;3.80;;;3.50;99.90;;;;;;5079907;28;20469;-79
2022/04/10 02:12:41;;;;;;;8.67;4.07;;;3.40;99.90;;;;;;5079018;28;20869;-79
2022/04/10 02:15:09;;;;;;;8.87;3.33;;;3.40;99.90;;;;;;5078197;28;20457;-79
2022/04/10 02:17:38;;;;;;;7.67;3.70;;;3.40;99.90;;;;;;5078396;28;20498;-79
2022/04/10 02:20:07;;;;;;;9.63;4.57;;;3.40;99.90;;;;;;5077908;28;20450;-79
2022/04/10 02:22:35;;;;;;;10.40;4.30;;;3.40;99.90;;;;;;5077485;28;20456;-79
2022/04/10 02:25:04;;;;;;;7.70;4.33;;;3.30;99.90;;;;;;5078246;28;20802;-79
2022/04/10 02:27:34;;;;;;;8.53;4.23;;;3.30;99.90;;;;;;5078238;28;21000;-79
2022/04/10 02:30:02;;;;;;;8.40;3.93;;;3.30;99.90;;;;;;5077757;28;20461;-79
2022/04/10 02:32:32;;;;;;;6.93;3.40;;;3.30;99.90;;;;;;5078024;28;20453;-79
2022/04/10 02:35:01;;;;;;;8.40;3.90;;;3.30;99.90;;;;;;5077847;28;20454;-79
2022/04/10 02:37:30;;;;;;;5.73;3.57;;;3.30;99.90;;;;;;5078101;28;20460;-79
2022/04/10 02:39:59;;;;;;;8.63;4.80;;;3.20;99.90;;;;;;5077533;28;20878;-79
2022/04/10 02:42:27;;;;;;;10.60;4.17;;;3.30;99.90;;;;;;5078688;28;20448;-79
2022/04/10 02:44:58;;;;;;;11.93;4.70;;;3.30;99.90;;;;;;5078833;28;20491;-78
2022/04/10 02:47:26;;;;;;;8.00;4.23;;;3.20;99.90;;;;;;5078066;28;20534;-78
2022/04/10 02:49:55;;;;;;;10.37;4.33;;;3.30;99.90;;;;;;5079974;28;20468;-79
2022/04/10 02:52:23;;;;;;;9.13;4.33;;;3.20;99.90;;;;;;5076809;28;20457;-79
2022/04/10 02:54:52;;;;;;;15.57;5.33;;;3.30;99.90;;;;;;5060211;28;20458;-79
2022/04/10 02:57:21;;;;;;;8.57;4.20;;;3.30;99.90;;;;;;5058079;28;20462;-79
2022/04/10 02:59:49;;;;;;;14.40;4.90;;;3.20;99.90;;;;;;5058356;28;20477;-79
2022/04/10 03:02:19;;;;;;;12.00;4.30;;;3.20;99.90;;;;;;5058050;28;20450;-79
2022/04/10 03:04:47;;;;;;;13.00;5.03;;;3.20;99.90;;;;;;5063890;28;20824;-79
2022/04/10 03:07:15;;;;;;;9.87;4.50;;;3.20;99.90;;;;;;5078402;28;20511;-78
2022/04/10 03:09:44;;;;;;;10.97;4.70;;;3.20;99.90;;;;;;5078257;28;20480;-79
2022/04/10 03:12:12;;;;;;;10.50;6.60;;;3.20;99.90;;;;;;5077924;28;20469;-79
2022/04/10 03:14:40;;;;;;;8.67;4.93;;;3.10;99.90;;;;;;5078522;28;20480;-79
2022/04/10 03:17:11;;;;;;;9.73;4.80;;;3.10;99.90;;;;;;5078817;28;20464;-79
2022/04/10 03:19:40;;;;;;;7.23;4.53;;;3.10;99.90;;;;;;5078524;28;20453;-79
2022/04/10 03:22:09;;;;;;;10.30;4.43;;;3.10;99.90;;;;;;5074538;28;20463;-78
2022/04/10 03:24:37;;;;;;;6.60;4.20;;;3.00;99.90;;;;;;5050424;28;20487;-78
2022/04/10 03:27:06;;;;;;;6.70;4.13;;;3.00;99.90;;;;;;5074705;28;20469;-78
2022/04/10 03:29:34;;;;;;;13.83;4.70;;;3.00;99.90;;;;;;5075711;28;20560;-78
2022/04/10 03:32:03;;;;;;;9.17;3.97;;;3.00;99.90;;;;;;5079357;28;20970;-77
2022/04/10 03:34:31;;;;;;;10.87;4.20;;;3.00;99.90;;;;;;5076252;28;20974;-78
2022/04/10 03:37:02;;;;;;;10.20;5.13;;;3.00;99.90;;;;;;5075489;28;20465;-78
2022/04/10 03:39:32;;;;;;;14.23;4.93;;;2.90;99.90;;;;;;5075046;28;20442;-78
2022/04/10 03:42:01;;;;;;;11.17;4.53;;;2.90;99.90;;;;;;5074686;28;20511;-78
2022/04/10 03:44:31;;;;;;;9.73;4.50;;;2.90;99.90;;;;;;5075264;28;20502;-78
2022/04/10 03:47:02;;;;;;;12.70;5.07;;;2.90;99.90;;;;;;5074865;28;20907;-78
2022/04/10 03:49:31;;;;;;;13.90;5.17;;;2.90;99.90;;;;;;5075170;28;20461;-78
2022/04/10 03:52:04;;;;;;;10.30;4.27;;;2.90;99.90;;;;;;5075128;28;20449;-78
2022/04/10 03:54:33;;;;;;;9.23;4.40;;;2.90;99.90;;;;;;5076207;28;20455;-78
2022/04/10 03:57:01;;;;;;;13.67;4.20;;;2.80;99.90;;;;;;5062415;28;20469;-78
2022/04/10 03:59:29;;;;;;;8.97;4.63;;;2.80;99.90;;;;;;5062764;28;20454;-78
2022/04/10 04:01:57;;;;;;;8.50;4.20;;;2.80;99.90;;;;;;5055123;28;20442;-78
2022/04/10 04:04:26;;;;;;;13.57;3.73;;;2.80;99.90;;;;;;5055318;28;20458;-78
2022/04/10 04:06:54;;;;;;;16.93;4.70;;;2.80;99.90;;;;;;5056572;28;20461;-80
2022/04/10 04:09:25;;;;;;;8.63;4.30;;;2.80;99.90;;;;;;5057780;28;20857;-80
2022/04/10 04:11:54;;;;;;;13.63;4.83;;;2.80;99.90;;;;;;5056132;28;20469;-78
2022/04/10 04:14:22;;;;;;;6.90;3.67;;;2.80;99.90;;;;;;5069322;28;20526;-78
2022/04/10 04:16:51;;;;;;;12.07;4.53;;;2.80;99.90;;;;;;5075035;28;20996;-80
2022/04/10 04:19:19;;;;;;;12.53;5.33;;;2.80;99.90;;;;;;5076033;28;20449;-78
2022/04/10 04:21:47;;;;;;;12.77;4.63;;;2.80;99.90;;;;;;5075228;28;20449;-78
2022/04/10 04:24:16;;;;;;;13.63;4.53;;;2.90;99.90;;;;;;5074408;28;20449;-78
2022/04/10 04:26:45;;;;;;;11.60;3.90;;;2.80;99.90;;;;;;5075845;28;20497;-80
2022/04/10 04:29:15;;;;;;;10.93;4.63;;;2.80;99.90;;;;;;5076920;28;20441;-78
2022/04/10 04:31:44;;;;;;;13.37;5.20;;;2.90;99.90;;;;;;5066224;28;20465;-80
2022/04/10 04:34:13;;;;;;;9.50;3.70;;;2.90;99.90;;;;;;5055116;28;20457;-80
2022/04/10 04:36:42;;;;;;;9.63;4.13;;;2.90;99.90;;;;;;5055374;28;20472;-78
2022/04/10 04:39:11;;;;;;;11.90;3.93;;;2.90;99.90;;;;;;5054820;28;20461;-78
2022/04/10 04:41:48;;;;;;;13.27;4.90;;;2.90;99.90;;;;;;5053672;28;20438;-78
2022/04/10 04:44:16;;;;;;;10.83;4.33;;;2.90;99.90;;;;;;5053597;28;20507;-78
2022/04/10 04:46:45;;;;;;;9.40;4.00;;;3.00;99.90;;;;;;5053438;28;21009;-78
2022/04/10 04:49:13;;;;;;;14.30;4.70;;;3.00;99.90;;;;;;5073422;28;20535;-80
2022/04/10 04:51:41;;;;;;;10.27;4.40;;;3.00;99.90;;;;;;5078846;28;20567;-80
2022/04/10 04:54:10;;;;;;;12.77;4.20;;;3.00;99.90;;;;;;5079345;28;20502;-78
2022/04/10 04:56:42;;;;;;;13.60;4.97;;;3.00;99.90;;;;;;5078710;28;20472;-78
2022/04/10 04:59:14;;;;;;;9.03;3.63;;;3.10;99.90;;;;;;5078604;28;20968;-78
2022/04/10 05:01:43;;;;;;;12.43;4.20;;;3.10;99.90;;;;;;5063206;28;20489;-78
2022/04/10 05:04:12;;;;;;;13.40;4.00;;;3.10;99.90;;;;;;5058841;28;20862;-80
2022/04/10 05:06:40;;;;;;;12.77;4.33;;;3.10;99.90;;;;;;5056070;28;20508;-78
2022/04/10 05:09:09;;;;;;;10.20;4.40;;;3.10;99.90;;;;;;5067208;28;20469;-78
2022/04/10 05:11:38;;;;;;;7.30;3.73;;;3.10;99.90;;;;;;5077582;28;20471;-78
2022/04/10 05:14:07;;;;;;;11.77;3.80;;;3.10;99.90;;;;;;5078413;28;20467;-78
2022/04/10 05:16:37;;;;;;;11.80;4.73;;;3.10;99.90;;;;;;5078543;28;20492;-78
2022/04/10 05:19:06;;;;;;;8.40;3.37;;;3.10;99.90;;;;;;5078534;28;20817;-78
2022/04/10 05:21:36;;;;;;;10.90;4.20;;;3.10;99.90;;;;;;5055528;28;20487;-78
2022/04/10 05:24:05;;;;;;;7.07;4.17;;;3.20;99.90;;;;;;5039134;28;20994;-78
2022/04/10 05:26:33;;;;;;;8.83;3.63;;;3.20;99.90;;;;;;5048171;28;20472;-78
2022/04/10 05:29:03;;;;;;;7.10;3.30;;;3.20;99.90;;;;;;5070972;28;20971;-78
2022/04/10 05:31:32;;;;;;;10.00;3.73;;;3.20;99.90;;;;;;5079356;28;20860;-78
2022/04/10 05:34:02;;;;;;;12.00;3.87;;;3.20;99.90;;;;;;5079174;28;20552;-78
2022/04/10 05:36:32;;;;;;;10.53;5.73;;;3.20;99.90;;;;;;5079342;28;20473;-78
2022/04/10 05:39:00;;;;;;;11.87;3.83;;;3.30;99.90;;;;;;5079167;28;20459;-78
2022/04/10 05:41:30;;;;;;;9.50;4.53;;;3.30;99.90;;;;;;5084253;28;20501;-80
2022/04/10 05:44:05;;;;;;;10.03;3.90;;;3.30;99.90;;;;;;5084997;28;20456;-78
2022/04/10 05:46:38;;;;;;;9.93;3.67;;;3.30;99.90;;;;;;5083823;28;20474;-78
2022/04/10 05:49:17;;;;;;;8.73;4.00;;;3.30;99.90;;;;;;5083953;28;20445;-78
2022/04/10 05:51:47;;;;;;;8.10;3.30;;;3.30;99.90;;;;;;5084832;28;20472;-78
2022/04/10 05:54:15;;;;;;;7.50;3.90;;;3.30;99.90;;;;;;5083750;28;20451;-79
2022/04/10 05:56:49;;;;;;;6.63;3.40;;;3.40;99.90;;;;;;5083933;28;20543;-78
2022/04/10 05:59:18;;;;;;;7.40;4.00;;;3.40;99.90;;;;;;5084203;28;20821;-78
2022/04/10 06:01:47;;;;;;;8.37;3.60;;;3.50;99.90;;;;;;5079985;28;20475;-78
2022/04/10 06:04:18;;;;;;;15.50;3.90;;;3.50;99.90;;;;;;5064488;28;20457;-78
2022/04/10 06:06:47;;;;;;;10.93;3.80;;;3.50;99.90;;;;;;5061651;28;20462;-79
2022/04/10 06:09:24;;;;;;;9.20;3.50;;;3.60;99.90;;;;;;5081871;28;20491;-78
2022/04/10 06:11:52;;;;;;;10.07;3.40;;;3.70;99.90;;;;;;5084076;28;20548;-78
2022/04/10 06:14:22;;;;;;;7.50;3.33;;;3.90;99.90;;;;;;5083541;28;20525;-78
2022/04/10 06:16:50;;;;;;;7.63;3.73;;;4.10;99.90;;;;;;5082362;28;20834;-79
2022/04/10 06:19:24;;;;;;;13.07;4.30;;;4.30;99.90;;;;;;5063914;28;21021;-78
2022/04/10 06:21:53;;;;;;;11.80;3.13;;;4.50;99.90;;;;;;5064816;28;20453;-79
2022/04/10 06:24:22;;;;;;;6.03;3.50;;;4.80;99.90;;;;;;5067015;28;20450;-79
2022/04/10 06:26:51;;;;;;;7.10;3.30;;;5.00;99.90;;;;;;5067830;28;20542;-78
2022/04/10 06:29:22;;;;;;;7.33;3.20;;;5.30;99.90;;;;;;5083102;28;20453;-79
2022/04/10 06:31:58;;;;;;;7.40;3.47;;;5.50;99.90;;;;;;5083293;28;20495;-79
2022/04/10 06:34:31;;;;;;;5.20;2.80;;;5.70;99.90;;;;;;5080204;28;20541;-79
2022/04/10 06:37:02;;;;;;;6.93;2.93;;;5.70;99.90;;;;;;5078249;28;20480;-78
2022/04/10 06:39:30;;;;;;;6.53;3.03;;;5.60;99.90;;;;;;5076952;28;20456;-78
2022/04/10 06:41:59;;;;;;;6.97;3.50;;;5.70;99.90;;;;;;5047339;28;20546;-78
2022/04/10 06:44:43;;;;;;;7.40;2.90;;;5.80;99.90;;;;;;5072204;28;20965;-78
2022/04/10 06:47:31;;;;;;;5.83;2.83;;;5.80;99.90;;;;;;5078406;28;20468;-78
2022/04/10 06:50:03;;;;;;;6.17;3.47;;;5.80;99.90;;;;;;5077197;28;20813;-79
2022/04/10 06:52:32;;;;;;;7.10;3.30;;;5.80;99.90;;;;;;5076698;28;20476;-79
2022/04/10 06:55:00;;;;;;;5.73;3.17;;;5.80;99.90;;;;;;5076831;28;20437;-78
2022/04/10 06:57:28;;;;;;;6.70;2.80;;;5.80;99.90;;;;;;5075652;28;20841;-78
2022/04/10 07:00:02;;;;;;;5.77;3.37;;;5.70;99.90;;;;;;5076594;28;20445;-79
2022/04/10 07:02:34;;;;;;;7.00;3.77;;;5.70;99.90;;;;;;5077278;28;20492;-80
2022/04/10 07:05:07;;;;;;;9.37;3.60;;;5.60;99.90;;;;;;5076769;28;20453;-79
2022/04/10 07:07:39;;;;;;;8.30;3.30;;;5.60;99.90;;;;;;5077233;28;20453;-79
2022/04/10 07:10:08;;;;;;;10.20;3.40;;;5.70;99.90;;;;;;5077339;28;20468;-79
2022/04/10 07:12:37;;;;;;;7.73;3.63;;;5.90;99.90;;;;;;5077045;28;20477;-79
2022/04/10 07:15:08;;;;;;;7.00;2.70;;;6.10;99.90;;;;;;5078531;28;20969;-79
2022/04/10 07:17:37;;;;;;;6.73;2.93;;;6.30;99.90;;;;;;5064347;28;20473;-80
2022/04/10 07:20:11;;;;;;;7.67;2.60;;;6.50;99.90;;;;;;5059923;28;20982;-80
2022/04/10 07:25:26;;;;;;;7.03;2.80;;;6.80;99.90;;;;;;5075289;28;20437;-80
2022/04/10 07:27:54;;;;;;;8.57;4.17;;;6.90;99.90;;;;;;5060523;28;20477;-80
2022/04/10 07:30:32;;;;;;;6.70;2.90;;;7.10;99.90;;;;;;5059786;28;20459;-80
2022/04/10 07:33:05;;;;;;;7.53;2.60;;;7.20;99.90;;;;;;5061508;28;20457;-80
2022/04/10 07:35:44;;;;;;;4.30;2.00;;;7.30;99.90;;;;;;5080249;28;20472;-80
2022/04/10 07:38:17;;;;;;;5.20;1.90;;;7.20;99.90;;;;;;5079354;28;20474;-80
2022/04/10 07:40:47;;;;;;;4.90;2.13;;;7.10;99.90;;;;;;5079932;28;20458;-81
2022/04/10 07:43:22;;;;;;;6.13;2.50;;;7.20;99.90;;;;;;5080030;28;20451;-80
2022/04/10 07:48:48;;;;;;;7.70;2.27;;;7.50;99.90;;;;;;5079948;28;20462;-81
2022/04/10 07:51:22;;;;;;;3.90;2.00;;;7.70;99.90;;;;;;5078930;28;20499;-81
2022/04/10 07:54:15;;;;;;;6.07;2.77;;;7.90;99.90;;;;;;5077287;28;20457;-81
2022/04/10 07:56:43;;;;;;;4.57;2.37;;;8.20;99.90;;;;;;5079076;28;21074;-79
2022/04/10 07:59:20;;;;;;;4.90;2.00;;;8.30;99.90;;;;;;5079453;28;20456;-81
2022/04/10 08:01:48;;;;;;;4.23;2.20;;;8.40;99.90;;;;;;5080019;28;20455;-80
2022/04/10 08:04:22;;;;;;;4.27;1.90;;;8.40;99.90;;;;;;5078389;28;20880;-80
2022/04/10 08:07:18;;;;;;;6.50;2.33;;;8.50;99.90;;;;;;5030043;28;20465;-80
2022/04/10 08:09:47;;;;;;;4.67;2.07;;;8.30;99.90;;;;;;5056230;28;20467;-80
2022/04/10 08:12:15;;;;;;;4.63;2.37;;;8.40;99.90;;;;;;5077578;28;20469;-80
2022/04/10 08:14:43;;;;;;;6.63;2.73;;;8.40;99.90;;;;;;5078217;28;20439;-80
2022/04/10 08:17:12;;;;;;;6.00;2.57;;;8.50;99.90;;;;;;5077971;28;20551;-80
2022/04/10 08:19:40;;;;;;;5.30;2.17;;;8.60;99.90;;;;;;5077190;28;20519;-80
2022/04/10 08:22:08;;;;;;;5.43;2.00;;;8.60;99.90;;;;;;5077106;28;20498;-80
2022/04/10 08:24:38;;;;;;;5.10;2.70;;;8.70;99.90;;;;;;5090487;28;20459;-80
2022/04/10 08:27:06;;;;;;;5.67;2.80;;;8.70;99.90;;;;;;5080643;28;20484;-80
2022/04/10 08:29:34;;;;;;;4.60;2.23;;;8.70;99.90;;;;;;5080737;28;20502;-80
2022/04/10 08:32:02;;;;;;;5.47;2.60;;;8.80;99.90;;;;;;5080320;28;20456;-80
2022/04/10 08:34:30;;;;;;;7.60;2.83;;;9.00;99.90;;;;;;5080885;28;20455;-80
2022/04/10 08:37:03;;;;;;;6.33;2.43;;;9.00;99.90;;;;;;5079669;28;20469;-80
2022/04/10 08:39:32;;;;;;;5.83;1.93;;;8.90;99.90;;;;;;5080397;28;20456;-80
2022/04/10 08:42:06;;;;;;;4.50;1.90;;;8.90;99.90;;;;;;5080574;28;20799;-79
2022/04/10 08:44:37;;;;;;;4.87;2.33;;;8.90;99.90;;;;;;5077302;28;20482;-80
2022/04/10 08:47:05;;;;;;;4.20;1.73;;;8.90;99.90;;;;;;5079786;28;20840;-80
2022/04/10 08:49:34;;;;;;;3.93;2.30;;;8.90;99.90;;;;;;5079555;28;20980;-79
2022/04/10 08:52:03;;;;;;;6.63;2.43;;;8.90;99.90;;;;;;5080823;28;20448;-80
2022/04/10 08:54:34;;;;;;;6.10;2.47;;;9.00;99.90;;;;;;5079261;28;20439;-80
2022/04/10 08:57:04;;;;;;;4.50;2.60;;;9.10;99.90;;;;;;5080306;28;20453;-80
2022/04/10 08:59:32;;;;;;;5.10;2.60;;;9.20;99.90;;;;;;5079218;28;20494;-80
2022/04/10 09:02:00;;;;;;;6.63;2.67;;;9.30;99.90;;;;;;5080076;28;20454;-80
2022/04/10 09:04:29;;;;;;;6.30;2.60;;;9.30;99.90;;;;;;5073858;28;20961;-81
2022/04/10 09:06:59;;;;;;;6.03;2.47;;;9.30;99.90;;;;;;5039564;28;20549;-79
2022/04/10 09:09:27;;;;;;;6.03;2.97;;;9.20;99.90;;;;;;5061562;28;20444;-79
2022/04/10 09:11:56;;;;;;;4.47;2.80;;;9.30;99.90;;;;;;5078294;28;20515;-82
2022/04/10 09:14:27;;;;;;;4.93;2.47;;;9.40;99.90;;;;;;5077880;28;20518;-79
2022/04/10 09:17:12;;;;;;;6.63;2.53;;;9.40;99.90;;;;;;5078694;28;20468;-81
2022/04/10 09:19:43;;;;;;;5.80;3.00;;;9.40;99.90;;;;;;5077616;28;20447;-81
2022/04/10 09:22:24;;;;;;;5.23;2.60;;;9.50;99.90;;;;;;5077900;28;20437;-82
2022/04/10 09:25:08;;;;;;;5.03;2.50;;;9.60;99.90;;;;;;5077980;28;20494;-82
2022/04/10 09:27:38;;;;;;;5.10;2.43;;;9.70;99.90;;;;;;5079821;28;20441;-79
2022/04/10 09:30:10;;;;;;;4.70;2.20;;;9.70;99.90;;;;;;5079832;28;20475;-79
2022/04/10 09:32:43;;;;;;;4.30;2.10;;;9.70;99.90;;;;;;5077894;28;20465;-81
2022/04/10 09:35:13;;;;;;;7.67;3.10;;;9.70;99.90;;;;;;5077907;28;20440;-79
2022/04/10 09:37:46;;;;;;;7.87;2.40;;;9.60;99.90;;;;;;5076953;28;20448;-81
2022/04/10 09:40:25;;;;;;;7.60;2.70;;;9.50;99.90;;;;;;5077152;28;20449;-81
2022/04/10 09:43:00;;;;;;;5.13;2.43;;;9.40;99.90;;;;;;5078497;28;20451;-81
2022/04/10 09:45:35;;;;;;;5.70;2.53;;;9.20;99.90;;;;;;5079681;28;20483;-79
2022/04/10 09:48:22;;;;;;;5.70;2.30;;;9.00;99.90;;;;;;5078159;28;20933;-79
2022/04/10 09:50:53;;;;;;;5.80;3.10;;;8.80;99.90;;;;;;5076659;28;20495;-79
2022/04/10 09:53:22;;;;;;;5.27;2.20;;;8.70;99.90;;;;;;5078109;28;20997;-79
2022/04/10 09:55:55;;;;;;;5.60;2.90;;;8.60;99.90;;;;;;5078133;28;20479;-79
2022/04/10 09:58:25;;;;;;;7.23;2.53;;;8.50;99.90;;;;;;5079816;28;20453;-79
2022/04/10 10:00:56;;;;;;;4.87;2.60;;;8.50;99.90;;;;;;5077910;28;20544;-79
2022/04/10 10:03:30;;;;;;;6.60;2.80;;;8.50;99.90;;;;;;5078181;28;20448;-79
2022/04/10 10:05:59;;;;;;;5.63;2.90;;;8.60;99.90;;;;;;5078385;28;20472;-79
2022/04/10 10:08:28;;;;;;;4.90;2.53;;;8.70;99.90;;;;;;5077615;28;20532;-79
2022/04/10 10:10:57;;;;;;;4.73;2.30;;;8.70;99.90;;;;;;5079101;28;20852;-80
2022/04/10 10:13:27;;;;;;;6.20;2.73;;;8.80;99.90;;;;;;5079474;28;20514;-79
2022/04/10 10:15:57;;;;;;;6.30;3.20;;;8.80;99.90;;;;;;5078950;28;20465;-79
2022/04/10 10:18:26;;;;;;;7.87;2.80;;;8.90;99.90;;;;;;5077717;28;20467;-80
2022/04/10 10:20:54;;;;;;;4.67;2.37;;;9.00;99.90;;;;;;5077535;28;20460;-79
2022/04/10 10:23:23;;;;;;;7.20;2.30;;;9.10;99.90;;;;;;5078222;28;20509;-79
2022/04/10 10:26:05;;;;;;;6.63;2.37;;;9.20;99.90;;;;;;5077366;28;20489;-79
2022/04/10 10:28:55;;;;;;;7.63;2.00;;;9.30;99.90;;;;;;5078595;28;20779;-79
2022/04/10 10:31:44;;;;;;;10.03;2.93;;;9.30;99.90;;;;;;5076355;28;20532;-79
2022/04/10 10:34:13;;;;;;;3.73;2.27;;;9.10;99.90;;;;;;5076009;28;20678;-79
2022/04/10 10:36:41;;;;;;;4.13;1.97;;;8.90;99.90;;;;;;5075472;28;20469;-79
2022/04/10 10:39:10;;;;;;;3.67;1.60;;;8.80;99.90;;;;;;5076410;28;20451;-79
2022/04/10 10:41:40;;;;;;;7.90;2.30;;;8.60;99.90;;;;;;5079193;28;20957;-78
2022/04/10 10:44:38;;;;;;;4.20;1.93;;;8.50;99.90;;;;;;5079066;28;20441;-79
2022/04/10 10:47:23;;;;;;;5.23;1.80;;;8.40;99.90;;;;;;5077820;28;20508;-79
2022/04/10 10:49:53;;;;;;;5.13;1.93;;;8.40;99.90;;;;;;5076651;28;20448;-78
2022/04/10 10:52:23;;;;;;;4.80;2.13;;;8.40;99.90;;;;;;5069755;28;20498;-79
2022/04/10 10:54:53;;;;;;;3.80;1.70;;;8.40;99.90;;;;;;5076717;28;20471;-79
2022/04/10 10:57:40;;;;;;;5.10;2.80;;;8.50;99.90;;;;;;5076753;28;20563;-79
2022/04/10 11:00:16;;;;;;;6.57;1.97;;;8.60;99.90;;;;;;5076242;28;20445;-79
2022/04/10 11:02:51;;;;;;;4.23;1.83;;;8.60;99.90;;;;;;5076687;28;20819;-79
2022/04/10 11:05:30;;;;;;;3.63;1.80;;;8.60;99.90;;;;;;5070164;28;21043;-79
2022/04/10 11:07:59;;;;;;;6.10;2.40;;;8.70;99.90;;;;;;5066949;28;20551;-79
2022/04/10 11:10:30;;;;;;;5.27;2.40;;;8.80;99.90;;;;;;5075699;28;20480;-79
2022/04/10 11:13:04;;;;;;;8.73;2.47;;;8.80;99.90;;;;;;5075983;28;20445;-78
2022/04/10 11:15:34;;;;;;;7.03;2.30;;;8.70;99.90;;;;;;5075807;28;20476;-79
2022/04/10 11:18:37;;;;;;;5.83;2.47;;;8.80;99.90;;;;;;5077041;28;20492;-79
2022/04/10 11:21:18;;;;;;;4.60;1.80;;;8.80;99.90;;;;;;5035865;28;20562;-79
2022/04/10 11:23:55;;;;;;;6.90;2.10;;;8.90;99.90;;;;;;5036726;28;20498;-79
2022/04/10 11:26:27;;;;;;;3.50;1.70;;;8.90;99.90;;;;;;5034899;28;20490;-78
2022/04/10 11:29:02;;;;;;;3.57;1.50;;;8.80;99.90;;;;;;5064729;28;20537;-78
2022/04/10 11:31:32;;;;;;;5.07;2.00;;;8.80;99.90;;;;;;5076859;28;20468;-79
2022/04/10 11:34:12;;;;;;;4.90;1.90;;;8.70;99.90;;;;;;5075465;28;20985;-78
2022/04/10 11:36:52;;;;;;;5.70;1.93;;;8.70;99.90;;;;;;5074160;28;20473;-78
2022/04/10 11:39:29;;;;;;;5.10;1.83;;;8.70;99.90;;;;;;5074385;28;20477;-78
2022/04/10 11:42:02;;;;;;;5.60;2.03;;;8.70;99.90;;;;;;5075265;28;20443;-78
2022/04/10 11:44:30;;;;;;;6.57;2.20;;;8.70;99.90;;;;;;5076519;28;20422;-79
2022/04/10 11:47:01;;;;;;;5.30;1.97;;;8.80;99.90;;;;;;5076709;28;20563;-78
2022/04/10 11:49:29;;;;;;;4.23;1.90;;;8.80;99.90;;;;;;5075713;28;20550;-79
2022/04/10 11:52:00;;;;;;;3.60;1.50;;;8.80;99.90;;;;;;5067028;28;20458;-78
2022/04/10 11:54:31;;;;;;;4.80;2.43;;;8.90;99.90;;;;;;5076384;28;20532;-78
2022/04/10 11:57:00;;;;;;;6.20;2.37;;;9.00;99.90;;;;;;5074696;28;20457;-79
2022/04/10 11:59:34;;;;;;;4.23;1.67;;;9.10;99.90;;;;;;5074411;28;20457;-79
2022/04/10 12:02:03;;;;;;;4.20;1.50;;;9.30;99.90;;;;;;5075050;28;20441;-78
2022/04/10 12:04:32;;;;;;;2.67;1.37;;;9.40;99.90;;;;;;5074956;28;20455;-79
2022/04/10 12:07:17;;;;;;;3.10;1.33;;;9.50;99.90;;;;;;5074359;28;20551;-79
2022/04/10 12:09:48;;;;;;;3.87;1.70;;;9.50;99.90;;;;;;5074216;28;20804;-78
2022/04/10 12:12:19;;;;;;;3.43;1.57;;;9.60;99.90;;;;;;5074655;28;20441;-79
2022/04/10 12:14:48;;;;;;;3.83;1.47;;;9.60;99.90;;;;;;5073728;28;20487;-78
2022/04/10 12:17:19;;;;;;;3.90;1.53;;;9.50;99.90;;;;;;5074590;28;20490;-79
2022/04/10 12:19:48;;;;;;;4.77;1.60;;;9.30;99.90;;;;;;5074462;28;20926;-78
2022/04/10 12:22:22;;;;;;;4.70;1.80;;;9.10;99.90;;;;;;5074266;28;20455;-78
2022/04/10 12:24:57;;;;;;;3.77;2.20;;;9.00;99.90;;;;;;5075870;28;20447;-79
2022/04/10 12:27:25;;;;;;;5.70;2.10;;;8.90;99.90;;;;;;5075476;28;20475;-79
2022/04/10 12:29:55;;;;;;;5.10;1.93;;;8.80;99.90;;;;;;5074807;28;20889;-79
2022/04/10 12:32:24;;;;;;;5.97;2.23;;;8.90;99.90;;;;;;5075956;28;20440;-79
2022/04/10 12:34:53;;;;;;;5.60;2.33;;;8.90;99.90;;;;;;5074092;28;20472;-79
2022/04/10 12:37:22;;;;;;;3.90;1.80;;;8.80;99.90;;;;;;5076078;28;20504;-79
2022/04/10 12:40:00;;;;;;;4.13;2.17;;;8.90;99.90;;;;;;5074220;28;20457;-79
2022/04/10 12:42:38;;;;;;;3.67;2.10;;;8.90;99.90;;;;;;5074492;28;20452;-79
2022/04/10 12:45:09;;;;;;;5.97;2.73;;;9.00;99.90;;;;;;5075645;28;20481;-79
2022/04/10 12:47:44;;;;;;;6.30;1.97;;;9.00;99.90;;;;;;5076039;28;20461;-79
2022/04/10 12:50:15;;;;;;;4.87;2.07;;;9.10;99.90;;;;;;5076120;28;20470;-79
2022/04/10 12:52:45;;;;;;;5.43;2.60;;;9.10;99.90;;;;;;5074839;28;20923;-79
2022/04/10 12:55:21;;;;;;;5.47;2.37;;;9.20;99.90;;;;;;5075233;28;20476;-77
2022/04/10 12:58:07;;;;;;;5.23;1.80;;;9.30;99.90;;;;;;5114663;27;20577;-80
2022/04/10 13:00:37;;;;;;;6.83;2.40;;;9.40;99.90;;;;;;5114121;28;20451;-81
2022/04/10 13:03:21;;;;;;;5.67;2.40;;;9.50;99.90;;;;;;5112956;28;20823;-80
2022/04/10 13:05:57;;;;;;;2.97;1.50;;;9.50;99.90;;;;;;5106575;28;20597;-80
2022/04/10 13:08:27;;;;;;;4.53;2.13;;;9.60;99.90;;;;;;5104212;28;20506;-81
2022/04/10 13:10:58;;;;;;;6.47;2.00;;;9.70;99.90;;;;;;5112507;28;20444;-80
2022/04/10 13:14:00;;;;;;;5.20;2.00;;;9.80;99.90;;;;;;5116165;28;20444;-81
2022/04/10 13:16:29;;;;;;;4.27;1.47;;;9.90;99.90;;;;;;5112696;28;20473;-81
2022/04/10 13:19:01;;;;;;;2.87;1.47;;;10.00;99.90;;;;;;5113532;28;20440;-81
2022/04/10 13:21:29;;;;;;;5.30;1.57;;;10.00;99.90;;;;;;5112075;28;20482;-81